Aérodrome :
LOGIN :

S'inscrire | Disclaimer

   EN    FR    IT 

 










Légende :    VFR   VFR Marginal   IFR   IFR Intensif   IFR Très Intensif
Visi : 
Plafond : 
>= 8 km
>= 3000ft
5 à 8 km
1000 à 3000 ft
1500m à 5 km
500 à 1000 ft
800 à 1500m
200 à 500 ft
< 800m
< 200 ft
Symboles :   Orages  Brouillard  Fortes neiges  Fortes précipitations  Vent > 20 kt
SIGMETs :   Divers  Orages  Givrage  Turbulence  Onde Orograph.  Cendres Volcan.







- Altitude de l'aérodrome : 70 ft
- Code IATA : LEI


LEAM - Almeria

DERNIER METAR :
  • 160635Z VRB02KT 9999 RA FEW020 SCT045TCU BKN070 16/15 Q1011

METARs EXPIRÉS :
  • 160600Z 03002KT 9999 -RA FEW020 SCT045TCU OVC070 16/15 Q1010 RESHRA
  • 160544Z VRB02KT 9999 -RA FEW020 SCT050TCU OVC070 17/16 Q1011 RESHRA
  • 160530Z 26003KT 9999 -SHRA FEW020 SCT050TCU OVC070 17/16 Q1011
  • 160500Z VRB01KT 9999 -SHRA FEW020 SCT050TCU 17/15 Q1010
  • 160430Z 25003KT 200V320 9999 FEW020 SCT050 17/15 Q1010
  • 160400Z VRB02KT 9999 BKN040 17/15 Q1010

TAF TAF LEAM
Valide du 16 à 03h jusqu'au 17 à 03h UTC


160200Z 1603/1703 35005KT 9999 SCT030 TX23/1614Z TN15/1605Z
PROB30
TEMPO 1603/1612 3000 RA BKN014
BECMG 1608/1610 05010KT
PROB30
TEMPO 1611/1617 05015G25KT
BECMG 1618/1621 34010KT
Pas de NOTAMs connus pour ce terrain.



MET'MAP, la Météo Aéronautique d'un coup d'oeil ! - Copyright ORBIFLY Décembre 2007 - Disclaimer

ORBIFLY MET'MAP TEAM :

Programmation & Développement : Alexandra Zaïnal
Conception & Développement : Baudouin d'Aumeries
Co-Programmation & Développement : Marc-Olivier Méhu
Soutien technique & logistique : Manuel Goepfert

Contact : metmap@orbifly.com




SOURCES & CREDITS :

   NOAA